Hope Mills, North Carolina
Current Conditions -  °F | °C
As of 9:53 AM on Friday 31 Oct 2014 (Local Time) from KFAY Reporting Station
Clear Clear  
Wind Chill: 53°   Ceiling: Unl
Heat Index: 53°   Visibility: 10mi
Dew Point: 44°   Wind: 9mph
Humidity: 71%   Direction: 20°NNE
Pressure: 29.94"   Gusts: NA
Location:  34.97°N, 78.95°W
Report Text: KFAY 311353Z AUTO 02008KT 10SM CLR 12/07 A2994 RMK AO2 SLP135 T01170067
Loading
Personal Weather Stations






























Interactive Weather Map
Tropical Storm Tracking
New forecast layout! Learn more

10-Day Weather Forecast

Advertisements
Track Severe Weather on mobile